sensor_id;sensor_type;location;lat;lon;timestamp;temperature;humidity
17364;DHT22;8799;43.594;13.526;2022-07-26T00:02:01;30.50;60.30
17364;DHT22;8799;43.594;13.526;2022-07-26T00:04:29;30.50;60.40
17364;DHT22;8799;43.594;13.526;2022-07-26T00:06:57;30.40;60.50
17364;DHT22;8799;43.594;13.526;2022-07-26T00:09:26;30.50;60.70
17364;DHT22;8799;43.594;13.526;2022-07-26T00:11:55;30.40;60.70
17364;DHT22;8799;43.594;13.526;2022-07-26T00:14:24;30.50;60.80
17364;DHT22;8799;43.594;13.526;2022-07-26T00:16:51;30.50;60.90
17364;DHT22;8799;43.594;13.526;2022-07-26T00:19:19;30.50;61.00
17364;DHT22;8799;43.594;13.526;2022-07-26T00:21:46;30.50;61.00
17364;DHT22;8799;43.594;13.526;2022-07-26T00:24:35;30.50;61.00
17364;DHT22;8799;43.594;13.526;2022-07-26T00:27:04;30.50;61.00
17364;DHT22;8799;43.594;13.526;2022-07-26T00:29:32;30.60;61.00
17364;DHT22;8799;43.594;13.526;2022-07-26T00:32:02;30.60;61.00
17364;DHT22;8799;43.594;13.526;2022-07-26T00:34:29;30.60;61.10
17364;DHT22;8799;43.594;13.526;2022-07-26T00:36:57;30.60;61.10
17364;DHT22;8799;43.594;13.526;2022-07-26T00:39:26;30.60;61.10
17364;DHT22;8799;43.594;13.526;2022-07-26T00:41:56;30.60;61.30
17364;DHT22;8799;43.594;13.526;2022-07-26T00:44:23;30.60;61.40
17364;DHT22;8799;43.594;13.526;2022-07-26T00:46:51;30.60;61.50
17364;DHT22;8799;43.594;13.526;2022-07-26T00:49:19;30.60;61.60
17364;DHT22;8799;43.594;13.526;2022-07-26T00:51:47;30.60;61.70
17364;DHT22;8799;43.594;13.526;2022-07-26T00:54:16;30.60;61.80
17364;DHT22;8799;43.594;13.526;2022-07-26T00:56:44;30.60;62.00
17364;DHT22;8799;43.594;13.526;2022-07-26T00:59:14;30.60;62.20
17364;DHT22;8799;43.594;13.526;2022-07-26T01:01:42;30.60;62.40
17364;DHT22;8799;43.594;13.526;2022-07-26T01:04:10;30.60;63.30
17364;DHT22;8799;43.594;13.526;2022-07-26T01:06:38;30.70;63.40
17364;DHT22;8799;43.594;13.526;2022-07-26T01:09:06;30.60;63.70
17364;DHT22;8799;43.594;13.526;2022-07-26T01:11:34;30.60;64.00
17364;DHT22;8799;43.594;13.526;2022-07-26T01:14:03;30.60;64.30
17364;DHT22;8799;43.594;13.526;2022-07-26T01:16:32;30.60;64.40
17364;DHT22;8799;43.594;13.526;2022-07-26T01:19:00;30.70;64.50
17364;DHT22;8799;43.594;13.526;2022-07-26T01:21:29;30.70;64.50
17364;DHT22;8799;43.594;13.526;2022-07-26T01:23:57;30.60;64.40
17364;DHT22;8799;43.594;13.526;2022-07-26T01:26:25;30.60;64.30
17364;DHT22;8799;43.594;13.526;2022-07-26T01:28:53;30.60;64.40
17364;DHT22;8799;43.594;13.526;2022-07-26T01:31:21;30.70;64.40
17364;DHT22;8799;43.594;13.526;2022-07-26T01:33:48;30.70;64.30
17364;DHT22;8799;43.594;13.526;2022-07-26T01:36:16;30.70;64.00
17364;DHT22;8799;43.594;13.526;2022-07-26T01:38:46;30.60;63.40
17364;DHT22;8799;43.594;13.526;2022-07-26T01:41:13;30.60;62.40
17364;DHT22;8799;43.594;13.526;2022-07-26T01:43:41;30.60;62.20
17364;DHT22;8799;43.594;13.526;2022-07-26T01:46:09;30.70;62.10
17364;DHT22;8799;43.594;13.526;2022-07-26T01:48:38;30.60;62.10
17364;DHT22;8799;43.594;13.526;2022-07-26T01:51:06;30.60;62.20
17364;DHT22;8799;43.594;13.526;2022-07-26T01:53:34;30.70;62.20
17364;DHT22;8799;43.594;13.526;2022-07-26T01:56:04;30.60;62.10
17364;DHT22;8799;43.594;13.526;2022-07-26T01:58:31;30.70;62.10
17364;DHT22;8799;43.594;13.526;2022-07-26T02:00:59;30.60;62.00
17364;DHT22;8799;43.594;13.526;2022-07-26T02:03:27;30.60;62.00
17364;DHT22;8799;43.594;13.526;2022-07-26T02:05:54;30.60;62.00
17364;DHT22;8799;43.594;13.526;2022-07-26T02:08:22;30.70;61.90
17364;DHT22;8799;43.594;13.526;2022-07-26T02:10:50;30.60;61.80
17364;DHT22;8799;43.594;13.526;2022-07-26T02:13:30;30.60;61.70
17364;DHT22;8799;43.594;13.526;2022-07-26T02:15:57;30.70;61.60
17364;DHT22;8799;43.594;13.526;2022-07-26T02:18:27;30.70;61.50
17364;DHT22;8799;43.594;13.526;2022-07-26T02:20:54;30.70;61.50
17364;DHT22;8799;43.594;13.526;2022-07-26T02:23:22;30.70;61.50
17364;DHT22;8799;43.594;13.526;2022-07-26T02:25:50;30.70;61.50
17364;DHT22;8799;43.594;13.526;2022-07-26T02:28:19;30.70;61.40
17364;DHT22;8799;43.594;13.526;2022-07-26T02:30:49;30.70;61.40
17364;DHT22;8799;43.594;13.526;2022-07-26T02:33:17;30.70;61.30
17364;DHT22;8799;43.594;13.526;2022-07-26T02:35:48;30.60;61.30
17364;DHT22;8799;43.594;13.526;2022-07-26T02:38:15;30.60;61.30
17364;DHT22;8799;43.594;13.526;2022-07-26T02:40:43;30.60;61.40
17364;DHT22;8799;43.594;13.526;2022-07-26T02:43:11;30.70;61.30
17364;DHT22;8799;43.594;13.526;2022-07-26T02:45:39;30.60;61.50
17364;DHT22;8799;43.594;13.526;2022-07-26T02:48:09;30.60;61.50
17364;DHT22;8799;43.594;13.526;2022-07-26T02:50:36;30.70;61.40
17364;DHT22;8799;43.594;13.526;2022-07-26T02:53:04;30.60;61.30
17364;DHT22;8799;43.594;13.526;2022-07-26T02:55:31;30.70;61.30
17364;DHT22;8799;43.594;13.526;2022-07-26T02:57:58;30.70;61.40
17364;DHT22;8799;43.594;13.526;2022-07-26T03:00:26;30.70;61.40
17364;DHT22;8799;43.594;13.526;2022-07-26T03:02:54;30.60;61.50
17364;DHT22;8799;43.594;13.526;2022-07-26T03:05:23;30.60;61.50
17364;DHT22;8799;43.594;13.526;2022-07-26T03:07:50;30.70;61.70
17364;DHT22;8799;43.594;13.526;2022-07-26T03:10:18;30.60;61.80
17364;DHT22;8799;43.594;13.526;2022-07-26T03:12:49;30.60;62.00
17364;DHT22;8799;43.594;13.526;2022-07-26T03:15:16;30.60;62.00
17364;DHT22;8799;43.594;13.526;2022-07-26T03:17:44;30.60;62.00
17364;DHT22;8799;43.594;13.526;2022-07-26T03:20:12;30.70;62.10
17364;DHT22;8799;43.594;13.526;2022-07-26T03:22:41;30.70;62.40
17364;DHT22;8799;43.594;13.526;2022-07-26T03:25:09;30.70;62.40
17364;DHT22;8799;43.594;13.526;2022-07-26T03:27:37;30.60;62.40
17364;DHT22;8799;43.594;13.526;2022-07-26T03:30:07;30.60;62.20
17364;DHT22;8799;43.594;13.526;2022-07-26T03:32:35;30.60;62.30
17364;DHT22;8799;43.594;13.526;2022-07-26T03:35:04;30.70;62.20
17364;DHT22;8799;43.594;13.526;2022-07-26T03:37:32;30.70;62.10
17364;DHT22;8799;43.594;13.526;2022-07-26T03:40:01;30.70;62.00
17364;DHT22;8799;43.594;13.526;2022-07-26T03:42:28;30.70;61.80
17364;DHT22;8799;43.594;13.526;2022-07-26T03:44:55;30.60;61.70
17364;DHT22;8799;43.594;13.526;2022-07-26T03:47:23;30.60;61.70
17364;DHT22;8799;43.594;13.526;2022-07-26T03:49:51;30.70;61.60
17364;DHT22;8799;43.594;13.526;2022-07-26T03:52:18;30.70;61.60
17364;DHT22;8799;43.594;13.526;2022-07-26T03:54:46;30.70;61.50
17364;DHT22;8799;43.594;13.526;2022-07-26T03:57:16;30.60;61.60
17364;DHT22;8799;43.594;13.526;2022-07-26T03:59:42;30.60;61.70
17364;DHT22;8799;43.594;13.526;2022-07-26T04:02:09;30.60;61.80
17364;DHT22;8799;43.594;13.526;2022-07-26T04:04:37;30.50;61.90
17364;DHT22;8799;43.594;13.526;2022-07-26T04:07:05;30.40;62.00
17364;DHT22;8799;43.594;13.526;2022-07-26T04:09:33;30.40;62.10
17364;DHT22;8799;43.594;13.526;2022-07-26T04:12:01;30.40;62.10
17364;DHT22;8799;43.594;13.526;2022-07-26T04:14:30;30.30;62.20
17364;DHT22;8799;43.594;13.526;2022-07-26T04:16:58;30.30;62.10
17364;DHT22;8799;43.594;13.526;2022-07-26T04:19:26;30.30;62.10
17364;DHT22;8799;43.594;13.526;2022-07-26T04:21:54;30.30;62.10
17364;DHT22;8799;43.594;13.526;2022-07-26T04:24:21;30.30;61.90
17364;DHT22;8799;43.594;13.526;2022-07-26T04:26:49;30.30;62.00
17364;DHT22;8799;43.594;13.526;2022-07-26T04:29:17;30.30;62.00
17364;DHT22;8799;43.594;13.526;2022-07-26T04:31:46;30.30;62.20
17364;DHT22;8799;43.594;13.526;2022-07-26T04:34:13;30.30;62.30
17364;DHT22;8799;43.594;13.526;2022-07-26T04:36:43;30.30;62.30
17364;DHT22;8799;43.594;13.526;2022-07-26T04:39:12;30.30;62.20
17364;DHT22;8799;43.594;13.526;2022-07-26T04:41:39;30.30;62.20
17364;DHT22;8799;43.594;13.526;2022-07-26T04:44:08;30.30;62.20
17364;DHT22;8799;43.594;13.526;2022-07-26T04:46:36;30.40;62.20
17364;DHT22;8799;43.594;13.526;2022-07-26T04:49:06;30.30;62.00
17364;DHT22;8799;43.594;13.526;2022-07-26T04:51:34;30.30;61.70
17364;DHT22;8799;43.594;13.526;2022-07-26T04:54:04;30.30;61.40
17364;DHT22;8799;43.594;13.526;2022-07-26T04:56:32;30.30;61.50
17364;DHT22;8799;43.594;13.526;2022-07-26T04:59:00;30.30;61.50
17364;DHT22;8799;43.594;13.526;2022-07-26T05:01:28;30.30;61.90
17364;DHT22;8799;43.594;13.526;2022-07-26T05:03:55;30.30;62.20
17364;DHT22;8799;43.594;13.526;2022-07-26T05:06:27;30.30;62.00
17364;DHT22;8799;43.594;13.526;2022-07-26T05:09:02;30.30;61.80
17364;DHT22;8799;43.594;13.526;2022-07-26T05:11:29;30.30;61.40
17364;DHT22;8799;43.594;13.526;2022-07-26T05:13:57;30.30;61.00
17364;DHT22;8799;43.594;13.526;2022-07-26T05:16:25;30.30;60.70
17364;DHT22;8799;43.594;13.526;2022-07-26T05:18:53;30.30;61.50
17364;DHT22;8799;43.594;13.526;2022-07-26T05:21:21;30.40;62.00
17364;DHT22;8799;43.594;13.526;2022-07-26T05:23:50;30.40;63.40
17364;DHT22;8799;43.594;13.526;2022-07-26T05:26:17;30.40;64.50
17364;DHT22;8799;43.594;13.526;2022-07-26T05:28:46;30.40;64.40
17364;DHT22;8799;43.594;13.526;2022-07-26T05:31:14;30.40;64.60
17364;DHT22;8799;43.594;13.526;2022-07-26T05:33:42;30.40;64.50
17364;DHT22;8799;43.594;13.526;2022-07-26T05:36:09;30.40;64.50
17364;DHT22;8799;43.594;13.526;2022-07-26T05:38:37;30.40;63.90
17364;DHT22;8799;43.594;13.526;2022-07-26T05:41:07;30.40;63.60
17364;DHT22;8799;43.594;13.526;2022-07-26T05:43:34;30.40;62.50
17364;DHT22;8799;43.594;13.526;2022-07-26T05:46:02;30.50;62.50
17364;DHT22;8799;43.594;13.526;2022-07-26T05:48:30;30.40;62.20
17364;DHT22;8799;43.594;13.526;2022-07-26T05:50:58;30.40;62.30
17364;DHT22;8799;43.594;13.526;2022-07-26T05:53:26;30.40;62.50
17364;DHT22;8799;43.594;13.526;2022-07-26T05:55:57;30.50;63.40
17364;DHT22;8799;43.594;13.526;2022-07-26T05:58:30;30.50;63.40
17364;DHT22;8799;43.594;13.526;2022-07-26T06:00:59;30.50;63.70
17364;DHT22;8799;43.594;13.526;2022-07-26T06:03:26;30.50;63.30
17364;DHT22;8799;43.594;13.526;2022-07-26T06:05:55;30.50;62.50
17364;DHT22;8799;43.594;13.526;2022-07-26T06:08:24;30.50;62.50
17364;DHT22;8799;43.594;13.526;2022-07-26T06:10:53;30.50;62.40
17364;DHT22;8799;43.594;13.526;2022-07-26T06:13:22;30.50;62.20
17364;DHT22;8799;43.594;13.526;2022-07-26T06:15:51;30.50;62.00
17364;DHT22;8799;43.594;13.526;2022-07-26T06:18:19;30.50;61.70
17364;DHT22;8799;43.594;13.526;2022-07-26T06:20:47;30.50;61.70
17364;DHT22;8799;43.594;13.526;2022-07-26T06:23:15;30.50;61.20
17364;DHT22;8799;43.594;13.526;2022-07-26T06:25:42;30.50;61.00
17364;DHT22;8799;43.594;13.526;2022-07-26T06:28:10;30.50;60.90
17364;DHT22;8799;43.594;13.526;2022-07-26T06:30:39;30.50;60.90
17364;DHT22;8799;43.594;13.526;2022-07-26T06:33:09;30.50;60.90
17364;DHT22;8799;43.594;13.526;2022-07-26T06:35:37;30.50;60.90
17364;DHT22;8799;43.594;13.526;2022-07-26T06:38:09;30.50;60.80
17364;DHT22;8799;43.594;13.526;2022-07-26T06:40:42;30.50;60.70
17364;DHT22;8799;43.594;13.526;2022-07-26T06:43:10;30.50;60.60
17364;DHT22;8799;43.594;13.526;2022-07-26T06:45:37;30.50;60.40
17364;DHT22;8799;43.594;13.526;2022-07-26T06:48:05;30.50;60.20
17364;DHT22;8799;43.594;13.526;2022-07-26T06:50:34;30.50;60.10
17364;DHT22;8799;43.594;13.526;2022-07-26T06:53:02;30.50;60.00
17364;DHT22;8799;43.594;13.526;2022-07-26T06:55:30;30.50;60.00
17364;DHT22;8799;43.594;13.526;2022-07-26T06:58:01;30.50;59.80
17364;DHT22;8799;43.594;13.526;2022-07-26T07:00:28;30.50;58.90
17364;DHT22;8799;43.594;13.526;2022-07-26T07:02:56;30.50;58.70
17364;DHT22;8799;43.594;13.526;2022-07-26T07:05:24;30.50;58.60
17364;DHT22;8799;43.594;13.526;2022-07-26T07:07:54;30.50;58.40
17364;DHT22;8799;43.594;13.526;2022-07-26T07:10:21;30.50;58.30
17364;DHT22;8799;43.594;13.526;2022-07-26T07:12:49;30.50;58.00
17364;DHT22;8799;43.594;13.526;2022-07-26T07:15:17;30.50;58.00
17364;DHT22;8799;43.594;13.526;2022-07-26T07:17:44;30.50;58.00
17364;DHT22;8799;43.594;13.526;2022-07-26T07:20:12;30.60;58.40
17364;DHT22;8799;43.594;13.526;2022-07-26T07:22:40;30.60;57.90
17364;DHT22;8799;43.594;13.526;2022-07-26T07:25:13;30.60;57.90
17364;DHT22;8799;43.594;13.526;2022-07-26T07:27:40;30.50;57.70
17364;DHT22;8799;43.594;13.526;2022-07-26T07:30:09;30.60;57.40
17364;DHT22;8799;43.594;13.526;2022-07-26T07:32:37;30.60;57.70
17364;DHT22;8799;43.594;13.526;2022-07-26T07:35:06;30.60;57.70
17364;DHT22;8799;43.594;13.526;2022-07-26T07:37:33;30.60;57.80
17364;DHT22;8799;43.594;13.526;2022-07-26T07:40:04;30.60;57.90
17364;DHT22;8799;43.594;13.526;2022-07-26T07:42:35;30.60;58.00
17364;DHT22;8799;43.594;13.526;2022-07-26T07:45:04;30.60;57.80
17364;DHT22;8799;43.594;13.526;2022-07-26T07:47:33;30.60;57.90
17364;DHT22;8799;43.594;13.526;2022-07-26T07:50:01;30.60;58.20
17364;DHT22;8799;43.594;13.526;2022-07-26T07:52:28;30.60;58.20
17364;DHT22;8799;43.594;13.526;2022-07-26T07:54:56;30.60;58.30
17364;DHT22;8799;43.594;13.526;2022-07-26T07:57:24;30.60;58.20
17364;DHT22;8799;43.594;13.526;2022-07-26T07:59:55;30.60;58.10
17364;DHT22;8799;43.594;13.526;2022-07-26T08:02:23;30.60;58.50
17364;DHT22;8799;43.594;13.526;2022-07-26T08:04:51;30.70;58.60
17364;DHT22;8799;43.594;13.526;2022-07-26T08:07:18;30.70;58.90
17364;DHT22;8799;43.594;13.526;2022-07-26T08:09:49;30.60;59.50
17364;DHT22;8799;43.594;13.526;2022-07-26T08:12:16;30.60;59.90
17364;DHT22;8799;43.594;13.526;2022-07-26T08:14:44;30.70;60.30
17364;DHT22;8799;43.594;13.526;2022-07-26T08:17:13;30.70;60.70
17364;DHT22;8799;43.594;13.526;2022-07-26T08:19:40;30.70;60.90
17364;DHT22;8799;43.594;13.526;2022-07-26T08:22:08;30.70;61.50
17364;DHT22;8799;43.594;13.526;2022-07-26T08:24:37;30.70;61.80
17364;DHT22;8799;43.594;13.526;2022-07-26T08:27:05;30.70;62.20
17364;DHT22;8799;43.594;13.526;2022-07-26T08:29:40;30.70;62.50
17364;DHT22;8799;43.594;13.526;2022-07-26T08:32:08;30.80;63.30
17364;DHT22;8799;43.594;13.526;2022-07-26T08:34:37;30.80;63.60
17364;DHT22;8799;43.594;13.526;2022-07-26T08:37:05;30.80;64.10
17364;DHT22;8799;43.594;13.526;2022-07-26T08:39:32;30.80;64.70
17364;DHT22;8799;43.594;13.526;2022-07-26T08:42:01;30.80;65.90
17364;DHT22;8799;43.594;13.526;2022-07-26T08:44:29;30.80;66.30
17364;DHT22;8799;43.594;13.526;2022-07-26T08:46:57;30.80;66.10
17364;DHT22;8799;43.594;13.526;2022-07-26T08:49:25;30.80;66.70
17364;DHT22;8799;43.594;13.526;2022-07-26T08:51:55;30.80;67.00
17364;DHT22;8799;43.594;13.526;2022-07-26T08:54:24;30.80;67.10
17364;DHT22;8799;43.594;13.526;2022-07-26T08:56:52;30.80;67.60
17364;DHT22;8799;43.594;13.526;2022-07-26T08:59:20;30.80;68.10
17364;DHT22;8799;43.594;13.526;2022-07-26T09:01:53;30.80;68.90
17364;DHT22;8799;43.594;13.526;2022-07-26T09:04:23;30.90;69.20
17364;DHT22;8799;43.594;13.526;2022-07-26T09:07:00;30.90;69.60
17364;DHT22;8799;43.594;13.526;2022-07-26T09:09:29;30.90;69.80
17364;DHT22;8799;43.594;13.526;2022-07-26T09:12:00;30.90;69.80
17364;DHT22;8799;43.594;13.526;2022-07-26T09:14:38;30.80;69.10
17364;DHT22;8799;43.594;13.526;2022-07-26T09:17:06;30.80;69.30
17364;DHT22;8799;43.594;13.526;2022-07-26T09:19:33;30.90;69.70
17364;DHT22;8799;43.594;13.526;2022-07-26T09:22:11;30.90;69.80
17364;DHT22;8799;43.594;13.526;2022-07-26T09:24:41;30.90;70.10
17364;DHT22;8799;43.594;13.526;2022-07-26T09:27:10;30.90;69.70
17364;DHT22;8799;43.594;13.526;2022-07-26T09:29:45;30.90;69.00
17364;DHT22;8799;43.594;13.526;2022-07-26T09:32:15;30.90;68.70
17364;DHT22;8799;43.594;13.526;2022-07-26T09:34:43;31.00;69.20
17364;DHT22;8799;43.594;13.526;2022-07-26T09:37:13;31.00;68.90
17364;DHT22;8799;43.594;13.526;2022-07-26T09:39:54;31.00;68.70
17364;DHT22;8799;43.594;13.526;2022-07-26T09:42:23;31.00;68.20
17364;DHT22;8799;43.594;13.526;2022-07-26T09:44:51;31.00;67.90
17364;DHT22;8799;43.594;13.526;2022-07-26T09:47:19;31.00;68.20
17364;DHT22;8799;43.594;13.526;2022-07-26T09:52:35;31.00;68.90
17364;DHT22;8799;43.594;13.526;2022-07-26T09:55:04;31.00;68.90
17364;DHT22;8799;43.594;13.526;2022-07-26T09:57:33;31.00;70.00
17364;DHT22;8799;43.594;13.526;2022-07-26T10:00:02;31.00;70.00
17364;DHT22;8799;43.594;13.526;2022-07-26T10:02:30;31.00;70.00
17364;DHT22;8799;43.594;13.526;2022-07-26T10:04:58;31.00;70.60
17364;DHT22;8799;43.594;13.526;2022-07-26T10:07:26;31.00;71.00
17364;DHT22;8799;43.594;13.526;2022-07-26T10:09:58;31.00;71.70
17364;DHT22;8799;43.594;13.526;2022-07-26T10:12:30;31.00;72.20
17364;DHT22;8799;43.594;13.526;2022-07-26T10:14:58;31.00;72.20
17364;DHT22;8799;43.594;13.526;2022-07-26T10:17:44;31.00;72.00
17364;DHT22;8799;43.594;13.526;2022-07-26T10:25:55;31.00;72.70
17364;DHT22;8799;43.594;13.526;2022-07-26T10:28:25;31.00;73.00
17364;DHT22;8799;43.594;13.526;2022-07-26T10:31:24;31.00;72.80
17364;DHT22;8799;43.594;13.526;2022-07-26T10:33:53;31.00;73.00
17364;DHT22;8799;43.594;13.526;2022-07-26T10:36:32;31.00;72.70
17364;DHT22;8799;43.594;13.526;2022-07-26T10:39:21;31.00;72.30
17364;DHT22;8799;43.594;13.526;2022-07-26T10:41:59;31.00;72.30
17364;DHT22;8799;43.594;13.526;2022-07-26T10:44:27;31.00;72.60
17364;DHT22;8799;43.594;13.526;2022-07-26T10:46:57;31.00;72.90
17364;DHT22;8799;43.594;13.526;2022-07-26T10:49:30;31.00;73.10
17364;DHT22;8799;43.594;13.526;2022-07-26T10:52:15;31.00;73.30
17364;DHT22;8799;43.594;13.526;2022-07-26T10:55:14;31.00;73.50
17364;DHT22;8799;43.594;13.526;2022-07-26T10:57:45;31.00;73.70
17364;DHT22;8799;43.594;13.526;2022-07-26T11:00:19;31.00;73.80
17364;DHT22;8799;43.594;13.526;2022-07-26T11:02:48;31.00;73.70
17364;DHT22;8799;43.594;13.526;2022-07-26T11:05:19;31.00;73.80
17364;DHT22;8799;43.594;13.526;2022-07-26T11:07:50;31.00;73.70
17364;DHT22;8799;43.594;13.526;2022-07-26T11:10:25;31.00;73.50
17364;DHT22;8799;43.594;13.526;2022-07-26T11:13:16;31.00;73.10
17364;DHT22;8799;43.594;13.526;2022-07-26T11:15:47;31.00;72.60
17364;DHT22;8799;43.594;13.526;2022-07-26T11:18:20;31.00;72.40
17364;DHT22;8799;43.594;13.526;2022-07-26T11:20:51;31.00;72.40
17364;DHT22;8799;43.594;13.526;2022-07-26T11:23:29;31.00;72.10
17364;DHT22;8799;43.594;13.526;2022-07-26T11:26:14;31.00;72.10
17364;DHT22;8799;43.594;13.526;2022-07-26T11:28:56;31.00;72.60
17364;DHT22;8799;43.594;13.526;2022-07-26T11:31:28;31.00;72.90
17364;DHT22;8799;43.594;13.526;2022-07-26T11:34:00;31.10;72.00
17364;DHT22;8799;43.594;13.526;2022-07-26T11:36:34;31.10;72.20
17364;DHT22;8799;43.594;13.526;2022-07-26T11:39:04;31.10;72.80
17364;DHT22;8799;43.594;13.526;2022-07-26T11:41:31;31.10;72.80
17364;DHT22;8799;43.594;13.526;2022-07-26T11:44:04;31.10;73.00
17364;DHT22;8799;43.594;13.526;2022-07-26T11:46:34;31.10;73.50
17364;DHT22;8799;43.594;13.526;2022-07-26T11:49:04;31.10;73.60
17364;DHT22;8799;43.594;13.526;2022-07-26T11:51:32;31.10;73.60
17364;DHT22;8799;43.594;13.526;2022-07-26T11:54:01;31.00;73.90
17364;DHT22;8799;43.594;13.526;2022-07-26T11:56:29;31.00;74.10
17364;DHT22;8799;43.594;13.526;2022-07-26T11:58:57;31.00;74.30
17364;DHT22;8799;43.594;13.526;2022-07-26T12:01:26;31.00;74.50
17364;DHT22;8799;43.594;13.526;2022-07-26T12:03:55;31.00;74.90
17364;DHT22;8799;43.594;13.526;2022-07-26T12:06:24;31.00;75.20
17364;DHT22;8799;43.594;13.526;2022-07-26T12:08:54;31.00;75.80
17364;DHT22;8799;43.594;13.526;2022-07-26T12:11:36;31.00;76.10
17364;DHT22;8799;43.594;13.526;2022-07-26T12:14:04;31.00;76.20
17364;DHT22;8799;43.594;13.526;2022-07-26T12:16:51;31.00;76.20
17364;DHT22;8799;43.594;13.526;2022-07-26T12:19:25;31.00;76.70
17364;DHT22;8799;43.594;13.526;2022-07-26T12:21:54;31.00;76.60
17364;DHT22;8799;43.594;13.526;2022-07-26T12:24:40;31.00;77.00
17364;DHT22;8799;43.594;13.526;2022-07-26T12:27:09;31.00;77.60
17364;DHT22;8799;43.594;13.526;2022-07-26T12:29:39;31.00;78.00
17364;DHT22;8799;43.594;13.526;2022-07-26T12:32:12;31.00;78.20
17364;DHT22;8799;43.594;13.526;2022-07-26T12:34:41;31.00;78.20
17364;DHT22;8799;43.594;13.526;2022-07-26T12:37:16;31.00;78.40
17364;DHT22;8799;43.594;13.526;2022-07-26T12:39:59;31.00;78.10
17364;DHT22;8799;43.594;13.526;2022-07-26T12:42:29;30.90;77.20
17364;DHT22;8799;43.594;13.526;2022-07-26T12:45:02;30.90;77.60
17364;DHT22;8799;43.594;13.526;2022-07-26T12:47:32;30.90;78.10
17364;DHT22;8799;43.594;13.526;2022-07-26T12:50:00;31.00;78.50
17364;DHT22;8799;43.594;13.526;2022-07-26T12:52:29;31.00;78.60
17364;DHT22;8799;43.594;13.526;2022-07-26T12:54:57;31.00;78.90
17364;DHT22;8799;43.594;13.526;2022-07-26T12:57:24;31.00;78.80
17364;DHT22;8799;43.594;13.526;2022-07-26T12:59:53;31.00;78.50
17364;DHT22;8799;43.594;13.526;2022-07-26T13:02:24;30.90;77.70
17364;DHT22;8799;43.594;13.526;2022-07-26T13:04:56;30.90;77.60
17364;DHT22;8799;43.594;13.526;2022-07-26T13:07:24;30.90;77.20
17364;DHT22;8799;43.594;13.526;2022-07-26T13:09:53;31.00;77.40
17364;DHT22;8799;43.594;13.526;2022-07-26T13:12:20;31.00;77.10
17364;DHT22;8799;43.594;13.526;2022-07-26T13:14:48;31.00;76.80
17364;DHT22;8799;43.594;13.526;2022-07-26T13:17:17;31.00;77.00
17364;DHT22;8799;43.594;13.526;2022-07-26T13:19:45;30.90;76.70
17364;DHT22;8799;43.594;13.526;2022-07-26T13:22:14;30.90;77.10
17364;DHT22;8799;43.594;13.526;2022-07-26T13:24:42;31.00;78.10
17364;DHT22;8799;43.594;13.526;2022-07-26T13:27:09;30.90;77.50
17364;DHT22;8799;43.594;13.526;2022-07-26T13:29:37;30.90;78.00
17364;DHT22;8799;43.594;13.526;2022-07-26T13:32:05;30.90;78.50
17364;DHT22;8799;43.594;13.526;2022-07-26T13:34:33;30.90;78.90
17364;DHT22;8799;43.594;13.526;2022-07-26T13:37:01;30.90;79.10
17364;DHT22;8799;43.594;13.526;2022-07-26T13:39:30;30.90;79.80
17364;DHT22;8799;43.594;13.526;2022-07-26T13:41:58;30.90;79.70
17364;DHT22;8799;43.594;13.526;2022-07-26T13:44:25;30.90;80.10
17364;DHT22;8799;43.594;13.526;2022-07-26T13:46:53;30.90;80.40
17364;DHT22;8799;43.594;13.526;2022-07-26T13:49:21;30.90;80.60
17364;DHT22;8799;43.594;13.526;2022-07-26T13:51:48;30.90;80.90
17364;DHT22;8799;43.594;13.526;2022-07-26T13:54:27;30.90;81.40
17364;DHT22;8799;43.594;13.526;2022-07-26T13:56:59;30.90;81.30
17364;DHT22;8799;43.594;13.526;2022-07-26T13:59:27;30.90;81.20
17364;DHT22;8799;43.594;13.526;2022-07-26T14:01:55;30.90;80.60
17364;DHT22;8799;43.594;13.526;2022-07-26T14:04:23;30.90;80.20
17364;DHT22;8799;43.594;13.526;2022-07-26T14:06:50;30.50;80.10
17364;DHT22;8799;43.594;13.526;2022-07-26T14:09:19;30.90;80.30
17364;DHT22;8799;43.594;13.526;2022-07-26T14:11:47;30.90;80.50
17364;DHT22;8799;43.594;13.526;2022-07-26T14:14:17;30.90;80.60
17364;DHT22;8799;43.594;13.526;2022-07-26T14:16:45;30.90;80.90
17364;DHT22;8799;43.594;13.526;2022-07-26T14:19:12;30.90;80.80
17364;DHT22;8799;43.594;13.526;2022-07-26T14:21:40;30.90;81.20
17364;DHT22;8799;43.594;13.526;2022-07-26T14:24:08;30.90;81.40
17364;DHT22;8799;43.594;13.526;2022-07-26T14:26:36;30.90;81.30
17364;DHT22;8799;43.594;13.526;2022-07-26T14:29:04;31.00;82.30
17364;DHT22;8799;43.594;13.526;2022-07-26T14:31:34;31.00;82.40
17364;DHT22;8799;43.594;13.526;2022-07-26T14:34:04;31.00;82.80
17364;DHT22;8799;43.594;13.526;2022-07-26T14:36:31;31.00;82.70
17364;DHT22;8799;43.594;13.526;2022-07-26T14:38:58;31.00;83.10
17364;DHT22;8799;43.594;13.526;2022-07-26T14:41:27;31.00;83.00
17364;DHT22;8799;43.594;13.526;2022-07-26T14:43:54;31.00;82.80
17364;DHT22;8799;43.594;13.526;2022-07-26T14:46:22;31.00;82.60
17364;DHT22;8799;43.594;13.526;2022-07-26T14:48:52;31.00;82.10
17364;DHT22;8799;43.594;13.526;2022-07-26T14:51:21;31.00;82.00
17364;DHT22;8799;43.594;13.526;2022-07-26T14:53:48;31.00;81.90
17364;DHT22;8799;43.594;13.526;2022-07-26T14:56:17;31.00;81.70
17364;DHT22;8799;43.594;13.526;2022-07-26T14:58:48;30.90;80.40
17364;DHT22;8799;43.594;13.526;2022-07-26T15:01:16;30.90;80.40
17364;DHT22;8799;43.594;13.526;2022-07-26T15:03:44;30.90;80.40
17364;DHT22;8799;43.594;13.526;2022-07-26T15:06:14;30.90;80.10
17364;DHT22;8799;43.594;13.526;2022-07-26T15:08:42;30.90;79.80
17364;DHT22;8799;43.594;13.526;2022-07-26T15:11:09;30.90;79.40
17364;DHT22;8799;43.594;13.526;2022-07-26T15:13:37;30.90;79.20
17364;DHT22;8799;43.594;13.526;2022-07-26T15:16:06;30.90;79.10
17364;DHT22;8799;43.594;13.526;2022-07-26T15:18:35;30.90;79.10
17364;DHT22;8799;43.594;13.526;2022-07-26T15:21:04;30.90;79.20
17364;DHT22;8799;43.594;13.526;2022-07-26T15:23:34;30.90;79.30
17364;DHT22;8799;43.594;13.526;2022-07-26T15:26:02;30.90;79.30
17364;DHT22;8799;43.594;13.526;2022-07-26T15:28:30;30.90;79.20
17364;DHT22;8799;43.594;13.526;2022-07-26T15:30:58;30.90;79.30
17364;DHT22;8799;43.594;13.526;2022-07-26T15:33:25;30.90;79.20
17364;DHT22;8799;43.594;13.526;2022-07-26T15:35:53;30.90;79.30
17364;DHT22;8799;43.594;13.526;2022-07-26T15:38:21;30.90;78.90
17364;DHT22;8799;43.594;13.526;2022-07-26T15:40:52;30.90;78.40
17364;DHT22;8799;43.594;13.526;2022-07-26T15:43:24;30.90;77.70
17364;DHT22;8799;43.594;13.526;2022-07-26T15:45:52;30.80;76.90
17364;DHT22;8799;43.594;13.526;2022-07-26T15:48:22;30.90;76.80
17364;DHT22;8799;43.594;13.526;2022-07-26T15:50:50;30.90;76.30
17364;DHT22;8799;43.594;13.526;2022-07-26T15:53:17;30.90;76.20